タシュケント の空港の天気 - METARとTAF

タシケント空港 ( UTTT / TAS ) - ウズベキスタン タシュケント
飛行場実況気象(Metar)
観測時間11/17 22:30 UZT (11/17 17:30 UTC)
風向・風速東 2m/s
視程3000m
天気現象
なし
気温2℃
湿度69%
気圧1022hPa
METARUTTT 171730Z 08004KT 3000 FU NSC 02/M03 Q1022 R08R/CLRD70 NOSIG
過去の天気等 Google飛行場航空写真 Wunderground天気予報

過去48時間のMETAR

飛行場予報(TAF)
発表時間: 11/17 22:00 UZT (11/17 17:00 UTC)
予報対象時間: 17日23時 UZT ~ 18日23時 UZT
風向・風速東 4m/s
視程7000m
なし
17日23時 UZT ~ 18日7時 UZT に一時的に
視程3000m
天気現象もや 煙
TAF UTTT 171700Z 1718/1818 08008KT 7000 NSC
TEMPO 1718/1802 3000 BR FU